Ellison, Illinois
Current Conditions -  °F | °C
As of 10:15 AM on Friday 24 Oct 2014 (Local Time) from KMQB Reporting Station
Moderate Fog Moderate Fog  
Wind Chill: 53°   Ceiling: 100
Heat Index: 53°   Visibility: 0mi
Dew Point: 53°   Wind: 5mph
Humidity: 100%   Direction: 170°S
Pressure: 30.11"   Gusts: NA
Location:  40.7223°N, 90.7308°W
Report Text: KMQB 241515Z AUTO 17004KT M1/4SM FG OVC001 12/12 A3011 RMK AO2 T01150115
Loading
Personal Weather Stations






























Interactive Weather Map
Tropical Storm Tracking
New forecast layout! Learn more

10-Day Weather Forecast

Advertisements
Track Severe Weather on mobile